sensor_id;sensor_type;location;lat;lon;timestamp;temperature;humidity
21335;DHT22;69435;52.670;13.544;2023-07-08T00:00:14;18.30;58.40
21335;DHT22;69435;52.670;13.544;2023-07-08T00:03:01;18.20;58.40
21335;DHT22;69435;52.670;13.544;2023-07-08T00:05:52;18.20;58.70
21335;DHT22;69435;52.670;13.544;2023-07-08T00:08:39;18.20;58.80
21335;DHT22;69435;52.670;13.544;2023-07-08T00:11:25;18.10;59.00
21335;DHT22;69435;52.670;13.544;2023-07-08T00:14:17;18.10;59.10
21335;DHT22;69435;52.670;13.544;2023-07-08T00:17:04;18.10;59.30
21335;DHT22;69435;52.670;13.544;2023-07-08T00:19:54;18.10;59.40
21335;DHT22;69435;52.670;13.544;2023-07-08T00:22:41;18.00;59.40
21335;DHT22;69435;52.670;13.544;2023-07-08T00:25:28;18.00;59.30
21335;DHT22;69435;52.670;13.544;2023-07-08T00:28:19;18.00;59.30
21335;DHT22;69435;52.670;13.544;2023-07-08T00:31:10;17.90;59.30
21335;DHT22;69435;52.670;13.544;2023-07-08T00:33:56;17.90;59.40
21335;DHT22;69435;52.670;13.544;2023-07-08T00:36:42;17.90;59.60
21335;DHT22;69435;52.670;13.544;2023-07-08T00:39:28;17.80;59.40
21335;DHT22;69435;52.670;13.544;2023-07-08T00:42:19;17.80;59.50
21335;DHT22;69435;52.670;13.544;2023-07-08T00:48:25;17.70;59.60
21335;DHT22;69435;52.670;13.544;2023-07-08T00:51:20;17.70;59.70
21335;DHT22;69435;52.670;13.544;2023-07-08T00:54:12;17.60;59.60
21335;DHT22;69435;52.670;13.544;2023-07-08T00:57:02;17.60;59.70
21335;DHT22;69435;52.670;13.544;2023-07-08T01:02:54;17.50;59.60
21335;DHT22;69435;52.670;13.544;2023-07-08T01:05:42;17.50;59.80
21335;DHT22;69435;52.670;13.544;2023-07-08T01:08:29;17.50;59.80
21335;DHT22;69435;52.670;13.544;2023-07-08T01:11:16;17.50;59.60
21335;DHT22;69435;52.670;13.544;2023-07-08T01:14:03;17.50;59.30
21335;DHT22;69435;52.670;13.544;2023-07-08T01:16:52;17.50;59.10
21335;DHT22;69435;52.670;13.544;2023-07-08T01:19:38;17.40;59.10
21335;DHT22;69435;52.670;13.544;2023-07-08T01:22:24;17.40;59.40
21335;DHT22;69435;52.670;13.544;2023-07-08T01:25:11;17.40;59.30
21335;DHT22;69435;52.670;13.544;2023-07-08T01:27:59;17.30;59.70
21335;DHT22;69435;52.670;13.544;2023-07-08T01:30:45;17.30;59.90
21335;DHT22;69435;52.670;13.544;2023-07-08T01:33:33;17.20;59.60
21335;DHT22;69435;52.670;13.544;2023-07-08T01:36:22;17.20;59.40
21335;DHT22;69435;52.670;13.544;2023-07-08T01:39:13;17.30;59.70
21335;DHT22;69435;52.670;13.544;2023-07-08T01:42:03;17.20;59.40
21335;DHT22;69435;52.670;13.544;2023-07-08T01:44:49;17.20;59.20
21335;DHT22;69435;52.670;13.544;2023-07-08T01:47:36;17.30;59.30
21335;DHT22;69435;52.670;13.544;2023-07-08T01:50:23;17.20;59.30
21335;DHT22;69435;52.670;13.544;2023-07-08T01:53:22;17.10;59.50
21335;DHT22;69435;52.670;13.544;2023-07-08T01:56:14;17.10;59.80
21335;DHT22;69435;52.670;13.544;2023-07-08T01:59:00;17.10;60.00
21335;DHT22;69435;52.670;13.544;2023-07-08T02:01:46;17.00;59.70
21335;DHT22;69435;52.670;13.544;2023-07-08T02:04:35;17.00;59.50
21335;DHT22;69435;52.670;13.544;2023-07-08T02:07:21;17.00;59.40
21335;DHT22;69435;52.670;13.544;2023-07-08T02:10:07;17.00;59.80
21335;DHT22;69435;52.670;13.544;2023-07-08T02:12:53;17.00;59.80
21335;DHT22;69435;52.670;13.544;2023-07-08T02:15:39;16.90;59.70
21335;DHT22;69435;52.670;13.544;2023-07-08T02:18:25;16.90;59.40
21335;DHT22;69435;52.670;13.544;2023-07-08T02:21:11;16.90;59.20
21335;DHT22;69435;52.670;13.544;2023-07-08T02:23:58;16.90;59.10
21335;DHT22;69435;52.670;13.544;2023-07-08T02:26:44;16.90;59.10
21335;DHT22;69435;52.670;13.544;2023-07-08T02:29:32;16.80;59.10
21335;DHT22;69435;52.670;13.544;2023-07-08T02:32:19;16.80;58.90
21335;DHT22;69435;52.670;13.544;2023-07-08T02:35:06;16.80;59.10
21335;DHT22;69435;52.670;13.544;2023-07-08T02:37:54;16.70;59.20
21335;DHT22;69435;52.670;13.544;2023-07-08T02:40:41;16.70;59.30
21335;DHT22;69435;52.670;13.544;2023-07-08T02:43:27;16.70;59.50
21335;DHT22;69435;52.670;13.544;2023-07-08T02:46:13;16.70;59.50
21335;DHT22;69435;52.670;13.544;2023-07-08T02:48:59;16.60;59.30
21335;DHT22;69435;52.670;13.544;2023-07-08T02:51:45;16.60;59.30
21335;DHT22;69435;52.670;13.544;2023-07-08T02:54:31;16.60;59.50
21335;DHT22;69435;52.670;13.544;2023-07-08T02:57:16;16.50;59.70
21335;DHT22;69435;52.670;13.544;2023-07-08T03:00:03;16.50;59.90
21335;DHT22;69435;52.670;13.544;2023-07-08T03:02:52;16.50;60.10
21335;DHT22;69435;52.670;13.544;2023-07-08T03:05:38;16.50;60.90
21335;DHT22;69435;52.670;13.544;2023-07-08T03:08:25;16.50;60.20
21335;DHT22;69435;52.670;13.544;2023-07-08T03:11:12;16.50;60.10
21335;DHT22;69435;52.670;13.544;2023-07-08T03:13:58;16.50;60.10
21335;DHT22;69435;52.670;13.544;2023-07-08T03:16:44;16.50;60.10
21335;DHT22;69435;52.670;13.544;2023-07-08T03:19:30;16.50;59.90
21335;DHT22;69435;52.670;13.544;2023-07-08T03:22:16;16.50;59.50
21335;DHT22;69435;52.670;13.544;2023-07-08T03:25:02;16.50;59.30
21335;DHT22;69435;52.670;13.544;2023-07-08T03:27:48;16.50;59.50
21335;DHT22;69435;52.670;13.544;2023-07-08T03:30:34;16.50;59.60
21335;DHT22;69435;52.670;13.544;2023-07-08T03:33:21;16.50;59.70
21335;DHT22;69435;52.670;13.544;2023-07-08T03:36:13;16.50;59.90
21335;DHT22;69435;52.670;13.544;2023-07-08T03:39:09;16.50;60.10
21335;DHT22;69435;52.670;13.544;2023-07-08T03:41:55;16.60;60.10
21335;DHT22;69435;52.670;13.544;2023-07-08T03:44:41;16.50;60.20
21335;DHT22;69435;52.670;13.544;2023-07-08T03:47:27;16.50;60.40
21335;DHT22;69435;52.670;13.544;2023-07-08T03:50:22;16.60;60.40
21335;DHT22;69435;52.670;13.544;2023-07-08T03:53:09;16.60;60.40
21335;DHT22;69435;52.670;13.544;2023-07-08T03:55:55;16.60;60.20
21335;DHT22;69435;52.670;13.544;2023-07-08T03:58:41;16.70;60.00
21335;DHT22;69435;52.670;13.544;2023-07-08T04:01:27;16.70;60.20
21335;DHT22;69435;52.670;13.544;2023-07-08T04:04:15;16.70;60.50
21335;DHT22;69435;52.670;13.544;2023-07-08T04:07:01;16.70;60.50
21335;DHT22;69435;52.670;13.544;2023-07-08T04:09:47;16.80;60.80
21335;DHT22;69435;52.670;13.544;2023-07-08T04:12:36;16.80;60.80
21335;DHT22;69435;52.670;13.544;2023-07-08T04:15:22;16.80;60.50
21335;DHT22;69435;52.670;13.544;2023-07-08T04:18:13;16.90;60.50
21335;DHT22;69435;52.670;13.544;2023-07-08T04:20:59;17.00;60.30
21335;DHT22;69435;52.670;13.544;2023-07-08T04:23:46;17.10;60.00
21335;DHT22;69435;52.670;13.544;2023-07-08T04:26:32;17.20;59.90
21335;DHT22;69435;52.670;13.544;2023-07-08T04:29:22;17.30;59.70
21335;DHT22;69435;52.670;13.544;2023-07-08T04:32:09;17.40;59.30
21335;DHT22;69435;52.670;13.544;2023-07-08T04:34:55;17.50;59.00
21335;DHT22;69435;52.670;13.544;2023-07-08T04:37:41;17.70;59.10
21335;DHT22;69435;52.670;13.544;2023-07-08T04:40:27;17.80;58.50
21335;DHT22;69435;52.670;13.544;2023-07-08T04:43:13;17.90;58.30
21335;DHT22;69435;52.670;13.544;2023-07-08T04:46:00;18.10;57.80
21335;DHT22;69435;52.670;13.544;2023-07-08T04:48:46;18.20;57.70
21335;DHT22;69435;52.670;13.544;2023-07-08T04:51:33;18.40;57.40
21335;DHT22;69435;52.670;13.544;2023-07-08T04:54:19;18.50;57.60
21335;DHT22;69435;52.670;13.544;2023-07-08T04:57:05;18.60;56.70
21335;DHT22;69435;52.670;13.544;2023-07-08T04:59:51;18.70;56.00
21335;DHT22;69435;52.670;13.544;2023-07-08T05:02:37;18.80;55.70
21335;DHT22;69435;52.670;13.544;2023-07-08T05:05:23;19.00;55.50
21335;DHT22;69435;52.670;13.544;2023-07-08T05:08:11;19.20;55.30
21335;DHT22;69435;52.670;13.544;2023-07-08T05:10:57;19.30;54.90
21335;DHT22;69435;52.670;13.544;2023-07-08T05:13:43;19.40;54.60
21335;DHT22;69435;52.670;13.544;2023-07-08T05:16:34;19.50;54.40
21335;DHT22;69435;52.670;13.544;2023-07-08T05:19:23;19.70;54.30
21335;DHT22;69435;52.670;13.544;2023-07-08T05:22:10;19.80;54.20
21335;DHT22;69435;52.670;13.544;2023-07-08T05:24:56;19.90;54.20
21335;DHT22;69435;52.670;13.544;2023-07-08T05:27:42;20.00;53.30
21335;DHT22;69435;52.670;13.544;2023-07-08T05:30:28;20.00;53.30
21335;DHT22;69435;52.670;13.544;2023-07-08T05:33:14;20.10;53.00
21335;DHT22;69435;52.670;13.544;2023-07-08T05:36:00;20.20;52.60
21335;DHT22;69435;52.670;13.544;2023-07-08T05:38:46;20.30;52.70
21335;DHT22;69435;52.670;13.544;2023-07-08T05:41:32;20.40;53.10
21335;DHT22;69435;52.670;13.544;2023-07-08T05:44:18;20.50;53.20
21335;DHT22;69435;52.670;13.544;2023-07-08T05:47:04;20.70;52.50
21335;DHT22;69435;52.670;13.544;2023-07-08T05:49:50;20.80;52.30
21335;DHT22;69435;52.670;13.544;2023-07-08T05:52:36;20.90;52.00
21335;DHT22;69435;52.670;13.544;2023-07-08T05:55:22;21.00;52.40
21335;DHT22;69435;52.670;13.544;2023-07-08T05:58:08;21.20;51.90
21335;DHT22;69435;52.670;13.544;2023-07-08T06:00:58;21.30;51.80
21335;DHT22;69435;52.670;13.544;2023-07-08T06:03:44;21.50;52.10
21335;DHT22;69435;52.670;13.544;2023-07-08T06:06:30;21.60;51.90
21335;DHT22;69435;52.670;13.544;2023-07-08T06:09:16;21.70;51.80
21335;DHT22;69435;52.670;13.544;2023-07-08T06:12:02;21.90;51.80
21335;DHT22;69435;52.670;13.544;2023-07-08T06:14:49;22.00;50.90
21335;DHT22;69435;52.670;13.544;2023-07-08T06:17:35;22.20;51.20
21335;DHT22;69435;52.670;13.544;2023-07-08T06:20:21;22.20;50.80
21335;DHT22;69435;52.670;13.544;2023-07-08T06:23:07;22.40;50.60
21335;DHT22;69435;52.670;13.544;2023-07-08T06:25:53;22.50;50.20
21335;DHT22;69435;52.670;13.544;2023-07-08T06:28:40;22.60;50.20
21335;DHT22;69435;52.670;13.544;2023-07-08T06:31:26;22.70;50.80
21335;DHT22;69435;52.670;13.544;2023-07-08T06:34:12;22.80;49.90
21335;DHT22;69435;52.670;13.544;2023-07-08T06:36:58;23.00;50.10
21335;DHT22;69435;52.670;13.544;2023-07-08T06:39:44;23.10;50.00
21335;DHT22;69435;52.670;13.544;2023-07-08T06:42:30;23.20;49.90
21335;DHT22;69435;52.670;13.544;2023-07-08T06:45:16;23.30;49.10
21335;DHT22;69435;52.670;13.544;2023-07-08T06:48:02;23.50;49.00
21335;DHT22;69435;52.670;13.544;2023-07-08T06:50:48;23.60;49.10
21335;DHT22;69435;52.670;13.544;2023-07-08T06:53:34;23.70;48.30
21335;DHT22;69435;52.670;13.544;2023-07-08T06:56:23;23.90;48.10
21335;DHT22;69435;52.670;13.544;2023-07-08T06:59:10;24.10;48.40
21335;DHT22;69435;52.670;13.544;2023-07-08T07:01:56;24.20;47.50
21335;DHT22;69435;52.670;13.544;2023-07-08T07:04:42;24.30;48.10
21335;DHT22;69435;52.670;13.544;2023-07-08T07:07:28;24.50;47.60
21335;DHT22;69435;52.670;13.544;2023-07-08T07:10:14;24.70;46.30
21335;DHT22;69435;52.670;13.544;2023-07-08T07:13:00;24.80;46.50
21335;DHT22;69435;52.670;13.544;2023-07-08T07:15:48;25.10;46.60
21335;DHT22;69435;52.670;13.544;2023-07-08T07:18:34;25.90;45.20
21335;DHT22;69435;52.670;13.544;2023-07-08T07:21:23;27.20;43.50
21335;DHT22;69435;52.670;13.544;2023-07-08T07:24:09;29.00;40.40
21335;DHT22;69435;52.670;13.544;2023-07-08T07:26:55;30.80;37.00
21335;DHT22;69435;52.670;13.544;2023-07-08T07:29:48;32.70;34.80
21335;DHT22;69435;52.670;13.544;2023-07-08T07:32:35;34.20;33.20
21335;DHT22;69435;52.670;13.544;2023-07-08T07:35:21;36.00;31.50
21335;DHT22;69435;52.670;13.544;2023-07-08T07:38:07;37.60;29.60
21335;DHT22;69435;52.670;13.544;2023-07-08T07:40:54;39.10;27.70
21335;DHT22;69435;52.670;13.544;2023-07-08T07:43:45;40.30;26.00
21335;DHT22;69435;52.670;13.544;2023-07-08T07:46:31;41.30;25.60
21335;DHT22;69435;52.670;13.544;2023-07-08T07:49:17;42.20;23.90
21335;DHT22;69435;52.670;13.544;2023-07-08T07:52:03;42.90;22.60
21335;DHT22;69435;52.670;13.544;2023-07-08T07:54:51;43.60;23.30
21335;DHT22;69435;52.670;13.544;2023-07-08T07:57:39;44.10;21.60
21335;DHT22;69435;52.670;13.544;2023-07-08T08:00:27;44.70;22.20
21335;DHT22;69435;52.670;13.544;2023-07-08T08:03:13;45.00;21.10
21335;DHT22;69435;52.670;13.544;2023-07-08T08:06:02;45.20;20.80
21335;DHT22;69435;52.670;13.544;2023-07-08T08:08:48;45.50;20.00
21335;DHT22;69435;52.670;13.544;2023-07-08T08:11:35;45.70;19.80
21335;DHT22;69435;52.670;13.544;2023-07-08T08:14:21;46.20;20.30
21335;DHT22;69435;52.670;13.544;2023-07-08T08:17:07;46.60;19.20
21335;DHT22;69435;52.670;13.544;2023-07-08T08:19:53;46.90;19.70
21335;DHT22;69435;52.670;13.544;2023-07-08T08:22:39;47.30;19.50
21335;DHT22;69435;52.670;13.544;2023-07-08T08:25:25;47.50;19.00
21335;DHT22;69435;52.670;13.544;2023-07-08T08:28:11;47.40;18.60
21335;DHT22;69435;52.670;13.544;2023-07-08T08:30:57;47.50;18.60
21335;DHT22;69435;52.670;13.544;2023-07-08T08:33:43;47.60;19.00
21335;DHT22;69435;52.670;13.544;2023-07-08T08:36:29;47.80;19.50
21335;DHT22;69435;52.670;13.544;2023-07-08T08:39:15;48.00;19.20
21335;DHT22;69435;52.670;13.544;2023-07-08T08:42:01;48.10;18.60
21335;DHT22;69435;52.670;13.544;2023-07-08T08:44:48;47.90;18.20
21335;DHT22;69435;52.670;13.544;2023-07-08T08:47:43;47.90;18.60
21335;DHT22;69435;52.670;13.544;2023-07-08T08:50:44;47.90;18.30
21335;DHT22;69435;52.670;13.544;2023-07-08T08:53:36;48.10;18.70
21335;DHT22;69435;52.670;13.544;2023-07-08T08:56:28;48.40;18.50
21335;DHT22;69435;52.670;13.544;2023-07-08T08:59:35;48.60;17.80
21335;DHT22;69435;52.670;13.544;2023-07-08T09:02:42;48.50;18.20
21335;DHT22;69435;52.670;13.544;2023-07-08T09:05:39;48.60;17.70
21335;DHT22;69435;52.670;13.544;2023-07-08T09:08:31;48.70;17.50
21335;DHT22;69435;52.670;13.544;2023-07-08T09:14:34;48.40;17.10
21335;DHT22;69435;52.670;13.544;2023-07-08T09:17:30;48.60;17.60
21335;DHT22;69435;52.670;13.544;2023-07-08T09:20:25;48.60;17.20
21335;DHT22;69435;52.670;13.544;2023-07-08T09:23:23;48.50;17.30
21335;DHT22;69435;52.670;13.544;2023-07-08T09:26:22;48.20;17.00
21335;DHT22;69435;52.670;13.544;2023-07-08T09:29:11;48.00;17.40
21335;DHT22;69435;52.670;13.544;2023-07-08T09:31:58;48.20;17.30
21335;DHT22;69435;52.670;13.544;2023-07-08T09:34:57;48.20;16.60
21335;DHT22;69435;52.670;13.544;2023-07-08T09:37:50;48.20;17.10
21335;DHT22;69435;52.670;13.544;2023-07-08T09:40:37;48.10;16.90
21335;DHT22;69435;52.670;13.544;2023-07-08T09:43:37;48.00;16.50
21335;DHT22;69435;52.670;13.544;2023-07-08T09:46:24;47.70;15.80
21335;DHT22;69435;52.670;13.544;2023-07-08T09:49:17;47.70;16.00
21335;DHT22;69435;52.670;13.544;2023-07-08T09:52:05;47.50;15.70
21335;DHT22;69435;52.670;13.544;2023-07-08T09:54:52;47.30;16.10
21335;DHT22;69435;52.670;13.544;2023-07-08T09:57:38;47.00;16.60
21335;DHT22;69435;52.670;13.544;2023-07-08T10:00:31;46.90;16.70
21335;DHT22;69435;52.670;13.544;2023-07-08T10:03:26;46.80;16.20
21335;DHT22;69435;52.670;13.544;2023-07-08T10:06:25;46.60;16.70
21335;DHT22;69435;52.670;13.544;2023-07-08T10:09:14;46.50;17.60
21335;DHT22;69435;52.670;13.544;2023-07-08T10:12:08;46.70;15.50
21335;DHT22;69435;52.670;13.544;2023-07-08T10:18:28;46.80;16.50
21335;DHT22;69435;52.670;13.544;2023-07-08T10:28:17;47.20;16.80
21335;DHT22;69435;52.670;13.544;2023-07-08T10:41:33;46.90;17.00
21335;DHT22;69435;52.670;13.544;2023-07-08T10:45:15;46.40;16.80
21335;DHT22;69435;52.670;13.544;2023-07-08T10:48:24;46.20;17.20
21335;DHT22;69435;52.670;13.544;2023-07-08T10:52:40;46.10;16.70
21335;DHT22;69435;52.670;13.544;2023-07-08T10:58:42;45.50;17.30
21335;DHT22;69435;52.670;13.544;2023-07-08T11:02:15;45.30;17.10
21335;DHT22;69435;52.670;13.544;2023-07-08T11:14:22;45.10;16.60
21335;DHT22;69435;52.670;13.544;2023-07-08T11:17:19;44.90;15.70
21335;DHT22;69435;52.670;13.544;2023-07-08T11:20:41;44.60;15.20
21335;DHT22;69435;52.670;13.544;2023-07-08T11:24:13;44.10;16.30
21335;DHT22;69435;52.670;13.544;2023-07-08T11:27:14;43.80;16.10
21335;DHT22;69435;52.670;13.544;2023-07-08T11:30:20;43.50;15.80
21335;DHT22;69435;52.670;13.544;2023-07-08T11:33:11;43.40;16.40
21335;DHT22;69435;52.670;13.544;2023-07-08T11:36:00;43.50;17.00
21335;DHT22;69435;52.670;13.544;2023-07-08T11:38:50;43.60;16.60
21335;DHT22;69435;52.670;13.544;2023-07-08T11:41:39;43.50;15.70
21335;DHT22;69435;52.670;13.544;2023-07-08T11:44:25;43.30;16.70
21335;DHT22;69435;52.670;13.544;2023-07-08T11:47:38;43.20;16.50
21335;DHT22;69435;52.670;13.544;2023-07-08T11:50:35;43.10;17.00
21335;DHT22;69435;52.670;13.544;2023-07-08T12:02:05;42.60;16.90
21335;DHT22;69435;52.670;13.544;2023-07-08T12:05:13;42.40;16.80
21335;DHT22;69435;52.670;13.544;2023-07-08T12:08:00;42.20;17.50
21335;DHT22;69435;52.670;13.544;2023-07-08T12:10:49;42.10;17.70
21335;DHT22;69435;52.670;13.544;2023-07-08T12:13:37;42.00;18.50
21335;DHT22;69435;52.670;13.544;2023-07-08T12:16:24;42.00;17.70
21335;DHT22;69435;52.670;13.544;2023-07-08T12:19:16;41.90;17.20
21335;DHT22;69435;52.670;13.544;2023-07-08T12:22:04;41.60;17.40
21335;DHT22;69435;52.670;13.544;2023-07-08T12:24:51;41.10;17.90
21335;DHT22;69435;52.670;13.544;2023-07-08T12:27:37;40.50;16.90
21335;DHT22;69435;52.670;13.544;2023-07-08T12:30:23;40.00;16.70
21335;DHT22;69435;52.670;13.544;2023-07-08T12:33:19;39.60;17.50
21335;DHT22;69435;52.670;13.544;2023-07-08T12:36:16;39.10;18.70
21335;DHT22;69435;52.670;13.544;2023-07-08T12:39:05;38.90;18.20
21335;DHT22;69435;52.670;13.544;2023-07-08T12:41:51;38.90;19.10
21335;DHT22;69435;52.670;13.544;2023-07-08T12:44:39;39.00;19.20
21335;DHT22;69435;52.670;13.544;2023-07-08T12:47:28;39.00;19.80
21335;DHT22;69435;52.670;13.544;2023-07-08T12:50:14;39.00;19.60
21335;DHT22;69435;52.670;13.544;2023-07-08T12:53:00;39.10;19.00
21335;DHT22;69435;52.670;13.544;2023-07-08T12:55:57;39.20;19.60
21335;DHT22;69435;52.670;13.544;2023-07-08T12:58:50;39.20;17.80
21335;DHT22;69435;52.670;13.544;2023-07-08T13:01:38;39.30;17.90
21335;DHT22;69435;52.670;13.544;2023-07-08T13:04:27;39.20;17.90
21335;DHT22;69435;52.670;13.544;2023-07-08T13:07:25;39.00;18.90
21335;DHT22;69435;52.670;13.544;2023-07-08T13:10:20;38.90;18.70
21335;DHT22;69435;52.670;13.544;2023-07-08T13:13:12;38.80;17.50
21335;DHT22;69435;52.670;13.544;2023-07-08T13:16:03;38.70;18.30
21335;DHT22;69435;52.670;13.544;2023-07-08T13:18:50;38.50;17.60
21335;DHT22;69435;52.670;13.544;2023-07-08T13:21:36;38.40;17.90
21335;DHT22;69435;52.670;13.544;2023-07-08T13:24:23;38.30;18.90
21335;DHT22;69435;52.670;13.544;2023-07-08T13:27:21;38.20;18.00
21335;DHT22;69435;52.670;13.544;2023-07-08T13:30:20;38.00;18.30
21335;DHT22;69435;52.670;13.544;2023-07-08T13:33:16;37.90;17.70
21335;DHT22;69435;52.670;13.544;2023-07-08T13:36:04;37.80;18.40
21335;DHT22;69435;52.670;13.544;2023-07-08T13:38:51;37.80;19.30
21335;DHT22;69435;52.670;13.544;2023-07-08T13:41:45;37.70;19.00
21335;DHT22;69435;52.670;13.544;2023-07-08T13:44:32;37.80;18.70
21335;DHT22;69435;52.670;13.544;2023-07-08T13:47:27;37.70;18.90
21335;DHT22;69435;52.670;13.544;2023-07-08T13:50:23;37.70;20.00
21335;DHT22;69435;52.670;13.544;2023-07-08T13:53:21;37.70;18.80
21335;DHT22;69435;52.670;13.544;2023-07-08T13:56:25;37.70;18.50
21335;DHT22;69435;52.670;13.544;2023-07-08T13:59:21;37.60;19.90
21335;DHT22;69435;52.670;13.544;2023-07-08T14:02:20;37.70;20.20
21335;DHT22;69435;52.670;13.544;2023-07-08T14:05:12;37.70;18.30
21335;DHT22;69435;52.670;13.544;2023-07-08T14:07:59;37.70;18.30
21335;DHT22;69435;52.670;13.544;2023-07-08T14:10:45;37.60;17.80
21335;DHT22;69435;52.670;13.544;2023-07-08T14:13:31;37.50;19.80
21335;DHT22;69435;52.670;13.544;2023-07-08T14:16:25;37.30;19.30
21335;DHT22;69435;52.670;13.544;2023-07-08T14:19:19;37.30;19.90
21335;DHT22;69435;52.670;13.544;2023-07-08T14:25:06;37.30;19.30
21335;DHT22;69435;52.670;13.544;2023-07-08T14:27:54;37.30;18.70
21335;DHT22;69435;52.670;13.544;2023-07-08T14:30:44;37.30;19.10
21335;DHT22;69435;52.670;13.544;2023-07-08T14:33:33;37.40;19.80
21335;DHT22;69435;52.670;13.544;2023-07-08T14:36:19;37.50;21.20
21335;DHT22;69435;52.670;13.544;2023-07-08T14:39:12;37.50;18.80
21335;DHT22;69435;52.670;13.544;2023-07-08T14:41:59;37.40;19.80
21335;DHT22;69435;52.670;13.544;2023-07-08T14:44:47;37.40;19.80
21335;DHT22;69435;52.670;13.544;2023-07-08T14:47:35;37.50;19.80
21335;DHT22;69435;52.670;13.544;2023-07-08T14:50:21;37.40;18.40
21335;DHT22;69435;52.670;13.544;2023-07-08T14:53:07;37.30;18.90
21335;DHT22;69435;52.670;13.544;2023-07-08T14:55:55;37.10;19.10
21335;DHT22;69435;52.670;13.544;2023-07-08T14:58:44;36.80;18.30
21335;DHT22;69435;52.670;13.544;2023-07-08T15:01:32;36.60;18.90
21335;DHT22;69435;52.670;13.544;2023-07-08T15:04:19;36.20;19.10
21335;DHT22;69435;52.670;13.544;2023-07-08T15:07:08;35.90;18.90
21335;DHT22;69435;52.670;13.544;2023-07-08T15:09:54;35.80;19.70
21335;DHT22;69435;52.670;13.544;2023-07-08T15:12:40;35.60;20.00
21335;DHT22;69435;52.670;13.544;2023-07-08T15:15:29;35.40;19.40
21335;DHT22;69435;52.670;13.544;2023-07-08T15:18:18;35.20;18.90
21335;DHT22;69435;52.670;13.544;2023-07-08T15:21:15;34.90;19.50
21335;DHT22;69435;52.670;13.544;2023-07-08T15:24:01;34.70;19.70
21335;DHT22;69435;52.670;13.544;2023-07-08T15:26:48;34.60;19.90
21335;DHT22;69435;52.670;13.544;2023-07-08T15:29:35;34.40;21.00
21335;DHT22;69435;52.670;13.544;2023-07-08T15:32:21;34.40;21.00
21335;DHT22;69435;52.670;13.544;2023-07-08T15:35:19;34.20;20.90
21335;DHT22;69435;52.670;13.544;2023-07-08T15:38:07;34.10;21.80
21335;DHT22;69435;52.670;13.544;2023-07-08T15:40:53;34.00;19.90
21335;DHT22;69435;52.670;13.544;2023-07-08T15:43:39;33.90;20.60
21335;DHT22;69435;52.670;13.544;2023-07-08T15:46:32;33.80;20.50
21335;DHT22;69435;52.670;13.544;2023-07-08T15:49:25;33.70;21.20
21335;DHT22;69435;52.670;13.544;2023-07-08T15:52:19;33.60;20.80
21335;DHT22;69435;52.670;13.544;2023-07-08T15:55:07;33.50;20.90
21335;DHT22;69435;52.670;13.544;2023-07-08T15:57:57;33.50;20.70
21335;DHT22;69435;52.670;13.544;2023-07-08T16:00:47;33.40;20.60
21335;DHT22;69435;52.670;13.544;2023-07-08T16:03:35;33.40;21.10
21335;DHT22;69435;52.670;13.544;2023-07-08T16:06:22;33.40;21.40
21335;DHT22;69435;52.670;13.544;2023-07-08T16:09:08;33.30;21.40
21335;DHT22;69435;52.670;13.544;2023-07-08T16:11:55;33.30;21.70
21335;DHT22;69435;52.670;13.544;2023-07-08T16:14:41;33.30;20.30
21335;DHT22;69435;52.670;13.544;2023-07-08T16:17:30;33.20;20.00
21335;DHT22;69435;52.670;13.544;2023-07-08T16:20:24;33.20;19.80
21335;DHT22;69435;52.670;13.544;2023-07-08T16:23:11;33.10;20.00
21335;DHT22;69435;52.670;13.544;2023-07-08T16:25:57;33.10;20.70
21335;DHT22;69435;52.670;13.544;2023-07-08T16:28:45;33.10;22.70
21335;DHT22;69435;52.670;13.544;2023-07-08T16:31:32;33.10;23.40
21335;DHT22;69435;52.670;13.544;2023-07-08T16:34:18;33.10;23.10
21335;DHT22;69435;52.670;13.544;2023-07-08T16:37:04;33.10;20.00
21335;DHT22;69435;52.670;13.544;2023-07-08T16:39:50;33.10;20.20
21335;DHT22;69435;52.670;13.544;2023-07-08T16:42:37;33.20;21.80
21335;DHT22;69435;52.670;13.544;2023-07-08T16:45:25;33.20;21.50
21335;DHT22;69435;52.670;13.544;2023-07-08T16:48:11;33.20;20.40
21335;DHT22;69435;52.670;13.544;2023-07-08T16:50:57;33.20;21.80
21335;DHT22;69435;52.670;13.544;2023-07-08T16:53:44;33.20;22.50
21335;DHT22;69435;52.670;13.544;2023-07-08T16:56:30;33.20;22.70
21335;DHT22;69435;52.670;13.544;2023-07-08T16:59:16;33.10;22.20
21335;DHT22;69435;52.670;13.544;2023-07-08T17:02:09;33.10;22.00
21335;DHT22;69435;52.670;13.544;2023-07-08T17:04:57;33.00;22.20
21335;DHT22;69435;52.670;13.544;2023-07-08T17:07:44;32.90;22.30
21335;DHT22;69435;52.670;13.544;2023-07-08T17:10:30;32.80;23.20
21335;DHT22;69435;52.670;13.544;2023-07-08T17:13:16;32.70;25.00
21335;DHT22;69435;52.670;13.544;2023-07-08T17:16:02;32.60;24.00
21335;DHT22;69435;52.670;13.544;2023-07-08T17:18:52;32.40;24.30
21335;DHT22;69435;52.670;13.544;2023-07-08T17:21:40;32.30;23.20
21335;DHT22;69435;52.670;13.544;2023-07-08T17:24:27;32.00;23.00
21335;DHT22;69435;52.670;13.544;2023-07-08T17:27:13;31.90;23.10
21335;DHT22;69435;52.670;13.544;2023-07-08T17:29:59;31.70;23.70
21335;DHT22;69435;52.670;13.544;2023-07-08T17:32:47;31.60;23.90
21335;DHT22;69435;52.670;13.544;2023-07-08T17:35:35;31.40;25.80
21335;DHT22;69435;52.670;13.544;2023-07-08T17:41:32;31.20;26.10
21335;DHT22;69435;52.670;13.544;2023-07-08T17:44:18;31.10;25.10
21335;DHT22;69435;52.670;13.544;2023-07-08T17:47:07;31.00;25.50
21335;DHT22;69435;52.670;13.544;2023-07-08T17:49:55;30.80;24.90
21335;DHT22;69435;52.670;13.544;2023-07-08T17:52:41;30.70;25.00
21335;DHT22;69435;52.670;13.544;2023-07-08T17:55:27;30.60;25.30
21335;DHT22;69435;52.670;13.544;2023-07-08T17:58:13;30.50;26.50
21335;DHT22;69435;52.670;13.544;2023-07-08T18:01:00;30.40;25.80
21335;DHT22;69435;52.670;13.544;2023-07-08T18:03:46;30.40;26.70
21335;DHT22;69435;52.670;13.544;2023-07-08T18:06:33;30.30;27.50
21335;DHT22;69435;52.670;13.544;2023-07-08T18:09:20;30.30;29.00
21335;DHT22;69435;52.670;13.544;2023-07-08T18:12:08;30.20;27.70
21335;DHT22;69435;52.670;13.544;2023-07-08T18:14:56;30.10;27.20
21335;DHT22;69435;52.670;13.544;2023-07-08T18:17:42;30.00;27.40
21335;DHT22;69435;52.670;13.544;2023-07-08T18:20:36;29.90;27.10
21335;DHT22;69435;52.670;13.544;2023-07-08T18:23:29;29.80;27.30
21335;DHT22;69435;52.670;13.544;2023-07-08T18:26:24;29.70;28.20
21335;DHT22;69435;52.670;13.544;2023-07-08T18:29:12;29.60;29.10